Time;durP1;ratioP1;P1;durP2;ratioP2;P2;SDS_P1;SDS_P2;PMS_P1;PMS_P2;Temp;Humidity;BMP_temperature;BMP_pressure;BME280_temperature;BME280_humidity;BME280_pressure;Samples;Min_cycle;Max_cycle;Signal;HPM_P1;HPM_P2
2022/04/10 00:00:19;;;;;;;;;17.00;15.25;;;;;8.58;53.67;101343.34;4808280;29;46188;-82
2022/04/10 00:02:44;;;;;;;;;18.25;15.00;;;;;8.56;53.80;101353.00;4808756;29;45617;-83
2022/04/10 00:05:10;;;;;;;;;16.00;15.50;;;;;8.51;53.95;101362.84;4808545;29;45651;-85
2022/04/10 00:10:57;;;;;;;;;18.75;17.50;;;;;8.38;54.42;101341.72;4807756;29;45862;-85
2022/04/10 00:13:23;;;;;;;;;20.00;16.25;;;;;8.39;54.55;101351.25;4807836;29;45533;-83
2022/04/10 00:15:48;;;;;;;;;20.75;18.75;;;;;8.34;54.52;101345.41;4808249;29;45600;-88
2022/04/10 00:18:14;;;;;;;;;19.25;17.25;;;;;8.30;54.64;101341.28;4808289;29;45510;-84
2022/04/10 00:20:39;;;;;;;;;19.75;18.00;;;;;8.30;54.99;101330.84;4809662;29;47996;-87
2022/04/10 00:23:05;;;;;;;;;22.75;20.75;;;;;8.28;54.74;101329.19;4809133;29;46093;-86
2022/04/10 00:25:30;;;;;;;;;20.75;19.25;;;;;8.27;54.74;101327.47;4809205;29;45584;-86
2022/04/10 00:27:56;;;;;;;;;21.25;19.25;;;;;8.30;54.80;101341.28;4810691;29;46306;-82
2022/04/10 00:30:22;;;;;;;;;25.75;21.75;;;;;8.29;54.98;101333.47;4808813;29;45618;-85
2022/04/10 00:32:47;;;;;;;;;18.25;17.25;;;;;8.30;55.11;101336.06;4809152;29;45743;-86
2022/04/10 00:35:13;;;;;;;;;19.75;18.75;;;;;8.29;55.03;101330.88;4812169;29;45669;-89
2022/04/10 00:41:00;;;;;;;;;20.25;17.75;;;;;8.27;55.38;101330.09;4810744;29;45518;-90
2022/04/10 00:43:32;;;;;;;;;21.00;18.00;;;;;8.24;55.27;101333.72;4810836;29;45574;-88
2022/04/10 00:45:58;;;;;;;;;18.75;18.00;;;;;8.21;55.42;101330.41;4810679;29;45713;-90
2022/04/10 00:48:24;;;;;;;;;21.25;17.25;;;;;8.19;55.24;101337.47;4795142;29;46615;-87
2022/04/10 00:56:58;;;;;;;;;25.50;19.50;;;;;8.04;55.31;101336.47;4812132;29;45752;-85
2022/04/10 00:59:24;;;;;;;;;17.25;17.00;;;;;7.97;55.44;101337.69;4807218;29;46780;-83
2022/04/10 01:01:50;;;;;;;;;17.50;16.00;;;;;7.89;55.43;101330.22;4808134;29;46190;-82
2022/04/10 01:04:18;;;;;;;;;19.75;18.75;;;;;7.85;55.57;101339.09;4809079;29;45550;-85
2022/04/10 01:06:47;;;;;;;;;21.00;19.50;;;;;7.77;55.69;101329.97;4821922;29;45648;-83
2022/04/10 01:09:13;;;;;;;;;19.25;17.00;;;;;7.80;55.61;101335.03;4806542;29;46454;-85
2022/04/10 01:11:39;;;;;;;;;17.50;16.50;;;;;7.79;55.80;101342.00;4806620;29;46644;-88
2022/04/10 01:14:04;;;;;;;;;13.50;11.25;;;;;7.75;55.88;101340.47;4806642;29;46178;-85
2022/04/10 01:16:31;;;;;;;;;20.75;19.75;;;;;7.73;55.77;101338.84;4806337;29;46062;-83
2022/04/10 01:18:57;;;;;;;;;17.75;15.25;;;;;7.71;55.80;101332.88;4805674;29;45571;-85
2022/04/10 01:21:25;;;;;;;;;18.25;15.75;;;;;7.70;56.09;101331.19;4805753;29;46125;-84
2022/04/10 01:23:56;;;;;;;;;16.25;14.75;;;;;7.68;55.65;101331.25;4806112;29;45584;-82
2022/04/10 01:26:27;;;;;;;;;18.25;17.25;;;;;7.69;55.54;101340.75;4806348;29;45553;-88
2022/04/10 01:29:04;;;;;;;;;18.00;16.75;;;;;7.71;55.81;101336.31;4806191;29;45919;-86
2022/04/10 01:31:34;;;;;;;;;17.25;14.25;;;;;7.71;55.85;101338.94;4806966;29;46072;-89
2022/04/10 01:34:03;;;;;;;;;16.00;14.00;;;;;7.68;55.96;101333.84;4806437;29;45833;-81
2022/04/10 01:36:30;;;;;;;;;14.75;14.75;;;;;7.67;55.90;101339.13;4806237;29;45747;-84
2022/04/10 01:38:57;;;;;;;;;17.75;17.75;;;;;7.66;56.07;101340.06;4805645;29;45501;-85
2022/04/10 01:41:25;;;;;;;;;19.00;17.00;;;;;7.64;55.92;101336.69;4805902;29;46064;-84
2022/04/10 01:43:51;;;;;;;;;17.25;15.00;;;;;7.60;56.06;101333.38;4819772;29;45897;-80
2022/04/10 01:46:17;;;;;;;;;15.75;15.00;;;;;7.59;56.07;101331.69;4806328;29;45708;-85
2022/04/10 01:48:42;;;;;;;;;17.25;14.50;;;;;7.55;55.78;101325.78;4805882;29;45615;-85
2022/04/10 01:51:09;;;;;;;;;21.00;14.00;;;;;7.60;55.81;101328.16;4805145;29;46518;-83
2022/04/10 01:56:56;;;;;;;;;17.75;15.75;;;;;7.59;55.91;101326.47;4805757;29;45677;-86
2022/04/10 01:59:21;;;;;;;;;14.00;14.00;;;;;7.59;55.79;101324.72;4805739;29;46347;-81
2022/04/10 02:01:48;;;;;;;;;14.50;13.75;;;;;7.58;55.95;101315.19;4806247;29;45631;-86
2022/04/10 02:04:14;;;;;;;;;7.25;6.75;;;;;7.61;55.79;101315.97;4808245;29;45744;-85
2022/04/10 02:06:40;;;;;;;;;15.25;13.75;;;;;7.61;55.66;101318.59;4808568;29;45676;-80
2022/04/10 02:12:27;;;;;;;;;15.75;13.75;;;;;7.59;55.56;101322.09;4807115;29;45752;-81
2022/04/10 02:14:52;;;;;;;;;13.25;13.25;;;;;7.59;55.86;101314.28;4790272;29;45661;-81
2022/04/10 02:17:18;;;;;;;;;13.50;12.00;;;;;7.58;55.83;101311.72;4806197;29;45572;-82
2022/04/10 02:19:43;;;;;;;;;14.25;12.00;;;;;7.59;55.74;101321.25;4804841;29;46364;-82
2022/04/10 02:22:09;;;;;;;;;14.00;13.00;;;;;7.53;55.71;101317.16;4805087;29;46012;-82
2022/04/10 02:24:34;;;;;;;;;17.50;13.50;;;;;7.56;55.63;101324.00;4805338;29;46281;-79
2022/04/10 02:26:59;;;;;;;;;12.50;11.25;;;;;7.52;55.73;101315.47;4805210;29;45792;-82
2022/04/10 02:29:25;;;;;;;;;13.50;12.50;;;;;7.51;55.61;101313.78;4804910;29;46519;-82
2022/04/10 02:31:50;;;;;;;;;14.75;13.00;;;;;7.55;55.27;101322.31;4805288;29;46271;-80
2022/04/10 02:34:16;;;;;;;;;8.75;8.25;;;;;7.48;55.38;101310.47;4805308;29;45520;-84
2022/04/10 02:36:41;;;;;;;;;13.00;10.25;;;;;7.49;55.13;101315.63;4806007;29;45512;-82
2022/04/10 02:42:28;;;;;;;;;10.75;10.75;;;;;7.49;55.24;101326.06;4805281;29;46189;-80
2022/04/10 02:44:54;;;;;;;;;14.25;13.00;;;;;7.43;55.23;101320.28;4805443;29;45670;-81
2022/04/10 02:47:20;;;;;;;;;10.00;10.00;;;;;7.45;55.32;101326.28;4788300;29;45632;-82
2022/04/10 02:49:46;;;;;;;;;13.25;10.00;;;;;7.46;55.21;101326.19;4804897;29;45732;-80
2022/04/10 02:52:12;;;;;;;;;12.75;9.50;;;;;7.47;55.25;101327.03;4804851;29;46590;-83
2022/04/10 02:58:00;;;;;;;;;14.00;12.00;;;;;7.49;55.33;101328.66;4804593;29;45681;-82
2022/04/10 03:00:25;;;;;;;;;15.25;11.50;;;;;7.48;55.42;101320.91;4804431;29;45846;-84
2022/04/10 03:02:51;;;;;;;;;13.00;13.00;;;;;7.50;55.23;101325.13;4806370;29;45666;-85
2022/04/10 03:05:17;;;;;;;;;14.25;10.50;;;;;7.52;55.33;101328.50;4808975;29;45657;-82
2022/04/10 03:07:42;;;;;;;;;10.75;10.50;;;;;7.54;55.41;101320.63;4791420;29;45567;-82
2022/04/10 03:10:08;;;;;;;;;12.00;11.50;;;;;7.54;55.36;101325.84;4807953;29;45605;-85
2022/04/10 03:12:33;;;;;;;;;13.00;10.25;;;;;7.52;55.24;101328.50;4807541;29;46945;-84
2022/04/10 03:14:59;;;;;;;;;13.75;12.75;;;;;7.54;55.46;101329.28;4816954;29;45424;-83
2022/04/10 03:17:24;;;;;;;;;9.50;8.50;;;;;7.50;55.55;101325.13;4815476;29;45566;-83
2022/04/10 03:19:49;;;;;;;;;11.50;10.00;;;;;7.49;55.51;101328.66;4809264;29;46564;-84
2022/04/10 03:22:15;;;;;;;;;14.00;10.00;;;;;7.52;55.58;101335.47;4808905;29;45615;-85
2022/04/10 03:28:42;;;;;;;;;12.50;9.50;;;;;7.42;55.58;101337.69;4808140;29;45750;-89
2022/04/10 03:31:07;;;;;;;;;10.50;9.75;;;;;7.38;55.67;101336.13;4808670;29;46472;-86
2022/04/10 03:33:33;;;;;;;;;11.00;9.75;;;;;7.38;55.63;101337.91;4821341;29;48013;-84
2022/04/10 03:35:58;;;;;;;;;9.50;8.25;;;;;7.32;55.56;101332.97;4791771;29;45735;-85
2022/04/10 03:38:24;;;;;;;;;9.25;9.00;;;;;7.33;55.71;101335.50;4807799;29;45549;-85
2022/04/10 03:40:49;;;;;;;;;12.00;10.75;;;;;7.30;55.50;101329.56;4790920;29;46938;-82
2022/04/10 03:43:14;;;;;;;;;10.00;9.50;;;;;7.34;55.83;101338.97;4821595;29;47026;-84
2022/04/10 03:45:40;;;;;;;;;11.25;9.00;;;;;7.33;55.82;101337.25;4807843;29;45669;-81
2022/04/10 03:48:09;;;;;;;;;11.75;10.25;;;;;7.32;55.75;101336.41;4807984;29;45584;-83
2022/04/10 03:50:35;;;;;;;;;11.25;11.00;;;;;7.33;55.96;101332.91;4807653;29;46328;-83
2022/04/10 03:53:02;;;;;;;;;10.50;9.00;;;;;7.40;56.17;101342.09;4790608;29;48336;-84
2022/04/10 03:58:49;;;;;;;;;13.00;9.25;;;;;7.38;56.05;101325.72;4807635;29;45707;-82
2022/04/10 04:01:14;;;;;;;;;11.25;9.50;;;;;7.44;56.07;101333.25;4808002;29;46574;-81
2022/04/10 04:03:40;;;;;;;;;13.25;10.50;;;;;7.44;55.93;101333.25;4807378;29;46115;-81
2022/04/10 04:06:05;;;;;;;;;10.00;9.25;;;;;7.44;56.12;101324.59;4807954;29;45533;-83
2022/04/10 04:08:31;;;;;;;;;8.75;8.75;;;;;7.45;56.27;101334.09;4808329;29;45956;-81
2022/04/10 04:10:56;;;;;;;;;10.00;8.00;;;;;7.43;56.20;101328.94;4807772;29;46453;-80
2022/04/10 04:13:22;;;;;;;;;15.25;12.75;;;;;7.43;56.01;101323.75;4809950;29;45701;-81
2022/04/10 04:15:47;;;;;;;;;9.25;7.75;;;;;7.46;55.98;101327.94;4811741;29;45706;-80
2022/04/10 04:18:13;;;;;;;;;10.00;9.00;;;;;7.46;55.97;101322.72;4812744;29;45699;-82
2022/04/10 04:20:38;;;;;;;;;11.00;10.00;;;;;7.45;56.08;101321.88;4813814;29;45643;-82
2022/04/10 04:23:04;;;;;;;;;8.75;8.50;;;;;7.46;55.89;101331.41;4816129;29;45713;-82
2022/04/10 04:28:51;;;;;;;;;10.00;10.00;;;;;7.48;56.13;101337.41;4805505;29;45766;-80
2022/04/10 04:31:16;;;;;;;;;12.75;9.75;;;;;7.48;55.87;101337.41;4807088;29;45788;-83
2022/04/10 04:33:42;;;;;;;;;9.00;8.25;;;;;7.48;56.30;101341.75;4807308;29;45870;-82
2022/04/10 04:36:07;;;;;;;;;10.75;9.50;;;;;7.45;55.95;101340.13;4807215;29;45593;-80
2022/04/10 04:38:33;;;;;;;;;10.00;9.50;;;;;7.46;56.17;101341.84;4806532;29;45694;-81
2022/04/10 04:44:20;;;;;;;;;7.75;6.75;;;;;7.46;56.20;101356.63;4806946;29;46264;-81
2022/04/10 04:46:45;;;;;;;;;9.25;9.00;;;;;7.46;56.08;101359.22;4806809;29;45606;-83
2022/04/10 04:49:11;;;;;;;;;10.75;10.00;;;;;7.42;56.17;101358.53;4806581;29;45861;-82
2022/04/10 04:51:36;;;;;;;;;11.25;10.00;;;;;7.45;56.22;101365.38;4806495;29;46242;-81
2022/04/10 04:54:04;;;;;;;;;10.00;9.25;;;;;7.45;56.11;101368.00;4806389;29;46111;-81
2022/04/10 04:56:30;;;;;;;;;12.50;11.75;;;;;7.44;56.33;101369.75;4806615;29;45917;-80
2022/04/10 04:58:55;;;;;;;;;11.00;9.75;;;;;7.45;56.21;101373.22;4806351;29;45624;-81
2022/04/10 05:01:21;;;;;;;;;11.75;9.00;;;;;7.42;56.26;101373.31;4806338;29;46583;-85
2022/04/10 05:03:47;;;;;;;;;12.75;9.75;;;;;7.44;56.39;101374.97;4806261;29;46400;-82
2022/04/10 05:06:12;;;;;;;;;9.00;8.75;;;;;7.47;56.37;101373.97;4806250;29;46116;-81
2022/04/10 05:08:39;;;;;;;;;10.00;10.00;;;;;7.45;56.41;101366.19;4806161;29;45777;-82
2022/04/10 05:14:26;;;;;;;;;13.75;12.00;;;;;7.48;55.96;101376.50;4806112;29;46336;-88
2022/04/10 05:16:52;;;;;;;;;13.50;12.50;;;;;7.46;56.36;101370.50;4807008;29;45710;-80
2022/04/10 05:19:17;;;;;;;;;10.00;10.00;;;;;7.46;56.53;101370.50;4807091;29;45799;-84
2022/04/10 05:21:43;;;;;;;;;13.50;11.25;;;;;7.50;56.53;101373.84;4821778;29;48628;-86
2022/04/10 05:24:08;;;;;;;;;16.50;14.00;;;;;7.49;56.43;101372.16;4809400;29;46178;-85
2022/04/10 05:29:55;;;;;;;;;14.00;11.50;;;;;7.49;56.78;101375.59;4805977;29;45828;-82
2022/04/10 05:32:21;;;;;;;;;17.00;14.00;;;;;7.53;56.86;101373.69;4807402;29;46541;-81
2022/04/10 05:34:46;;;;;;;;;14.75;13.75;;;;;7.53;56.79;101386.72;4806580;29;45639;-84
2022/04/10 05:37:12;;;;;;;;;14.00;13.00;;;;;7.55;56.97;101384.91;4806327;29;45633;-82
2022/04/10 05:39:39;;;;;;;;;16.00;14.00;;;;;7.56;56.69;101392.63;4806239;29;45677;-81
2022/04/10 05:42:06;;;;;;;;;20.00;13.00;;;;;7.54;56.56;101394.47;4805905;29;46298;-79
2022/04/10 05:44:32;;;;;;;;;14.25;13.50;;;;;7.57;56.82;101401.31;4806137;29;46103;-83
2022/04/10 05:46:57;;;;;;;;;15.50;13.75;;;;;7.56;56.92;101397.00;4806433;29;45578;-83
2022/04/10 05:49:23;;;;;;;;;17.50;14.50;;;;;7.59;56.80;101405.53;4789488;29;45569;-85
2022/04/10 05:51:50;;;;;;;;;16.75;16.50;;;;;7.63;56.91;101403.63;4789238;29;47399;-83
2022/04/10 05:54:15;;;;;;;;;21.00;17.25;;;;;7.64;57.17;101410.53;4805668;29;46201;-83
2022/04/10 06:00:06;;;;;;;;;23.75;21.00;;;;;7.69;57.06;101413.78;4805910;29;45532;-84
2022/04/10 06:02:32;;;;;;;;;21.00;19.75;;;;;7.71;56.93;101411.97;4806545;29;46436;-84
2022/04/10 06:04:57;;;;;;;;;21.25;19.00;;;;;7.72;57.33;101416.22;4790678;29;48057;-81
2022/04/10 06:07:23;;;;;;;;;22.50;18.75;;;;;7.73;57.21;101410.09;4807284;29;45739;-84
2022/04/10 06:09:48;;;;;;;;;21.25;19.00;;;;;7.73;57.21;101404.03;4807363;29;45668;-83
2022/04/10 06:12:14;;;;;;;;;28.75;25.00;;;;;7.75;57.00;101402.22;4806517;29;45559;-85
2022/04/10 06:14:39;;;;;;;;;19.50;19.50;;;;;7.77;56.98;101408.22;4807223;29;45728;-83
2022/04/10 06:17:06;;;;;;;;;18.75;18.25;;;;;7.82;57.19;101425.34;4806497;29;46178;-82
2022/04/10 06:19:31;;;;;;;;;26.00;23.50;;;;;7.85;56.77;101421.72;4806223;29;45635;-84
2022/04/10 06:21:57;;;;;;;;;22.00;21.25;;;;;7.87;56.88;101423.38;4806720;29;45813;-83
2022/04/10 06:24:22;;;;;;;;;22.75;21.75;;;;;7.88;56.82;101421.59;4806508;29;45555;-85
2022/04/10 06:30:10;;;;;;;;;25.25;22.50;;;;;7.93;57.08;101422.25;4805970;29;45730;-83
2022/04/10 06:32:35;;;;;;;;;24.75;23.75;;;;;7.94;56.76;101416.06;4806747;29;46814;-81
2022/04/10 06:35:00;;;;;;;;;27.00;25.75;;;;;7.93;56.83;101417.88;4806857;29;45785;-83
2022/04/10 06:37:26;;;;;;;;;24.25;23.50;;;;;7.98;56.88;101415.88;4807130;29;45537;-80
2022/04/10 06:39:51;;;;;;;;;26.25;24.75;;;;;7.99;56.81;101421.91;4806469;29;45629;-82
2022/04/10 06:45:38;;;;;;;;;28.00;26.25;;;;;8.08;57.14;101423.28;4806570;29;45858;-84
2022/04/10 06:48:06;;;;;;;;;26.50;26.00;;;;;8.08;57.00;101423.28;4806514;29;45620;-80
2022/04/10 06:50:32;;;;;;;;;31.75;26.00;;;;;8.11;56.80;101418.75;4808321;29;45439;-82
2022/04/10 06:52:57;;;;;;;;;39.25;38.00;;;;;8.13;56.95;101416.91;4807788;29;46482;-83
2022/04/10 06:55:22;;;;;;;;;28.75;27.50;;;;;8.19;56.80;101418.38;4806098;29;45554;-80
2022/04/10 06:57:48;;;;;;;;;32.25;29.25;;;;;8.19;56.77;101411.41;4806581;29;45742;-81
2022/04/10 07:00:15;;;;;;;;;27.50;25.50;;;;;8.23;56.91;101412.09;4806274;29;45760;-85
2022/04/10 07:02:41;;;;;;;;;29.00;24.25;;;;;8.29;57.02;101422.22;4806137;29;46366;-85
2022/04/10 07:05:07;;;;;;;;;25.75;23.00;;;;;8.34;56.99;101423.75;4805764;29;45599;-83
2022/04/10 07:07:32;;;;;;;;;29.25;24.75;;;;;8.36;56.49;101408.00;4806404;29;45554;-83
2022/04/10 07:09:59;;;;;;;;;30.50;28.00;;;;;8.42;56.69;101412.94;4806920;29;45892;-83
2022/04/10 07:15:48;;;;;;;;;25.75;22.00;;;;;8.50;56.49;101423.81;4810762;29;45692;-84
2022/04/10 07:18:14;;;;;;;;;25.75;21.75;;;;;8.54;56.46;101414.91;4810528;29;45647;-85
2022/04/10 07:20:40;;;;;;;;;24.50;21.50;;;;;8.58;56.46;101408.63;4809532;29;45850;-81
2022/04/10 07:25:52;;;;;;;;;24.00;19.00;;;;;8.66;56.04;101414.31;4809713;29;45662;-88
2022/04/10 07:28:18;;;;;;;;;13.75;11.25;;;;;8.71;55.47;101422.75;4813834;29;46045;-84
2022/04/10 07:30:44;;;;;;;;;10.75;10.50;;;;;8.75;55.55;101420.81;4808522;29;45639;-88
2022/04/10 07:33:10;;;;;;;;;11.25;9.00;;;;;8.78;55.59;101418.06;4790864;29;46761;-85
2022/04/10 07:35:36;;;;;;;;;11.00;10.50;;;;;8.80;54.97;101419.66;4793412;29;47286;-86
2022/04/10 07:38:03;;;;;;;;;10.50;10.00;;;;;8.88;54.77;101426.28;4810060;29;45669;-83
2022/04/10 07:40:32;;;;;;;;;3.00;3.00;;;;;8.90;54.26;101427.91;4814425;29;45664;-88
2022/04/10 07:49:08;;;;;;;;;7.00;7.00;;;;;8.99;53.43;101414.38;4815461;29;45620;-90
2022/04/10 07:51:33;;;;;;;;;6.75;6.00;;;;;9.04;53.59;101420.19;4803283;29;45615;-88
2022/04/10 07:54:05;;;;;;;;;8.50;6.75;;;;;9.07;53.65;101419.22;4818859;29;45494;-90
2022/04/10 07:56:31;;;;;;;;;10.25;10.00;;;;;9.11;53.18;101421.59;4796138;29;47134;-90
2022/04/10 07:58:56;;;;;;;;;12.25;10.75;;;;;9.19;52.88;101427.25;4793981;29;45658;-88
2022/04/10 08:01:22;;;;;;;;;8.00;8.00;;;;;9.25;52.91;101426.06;4809861;29;45529;-88
2022/04/10 08:03:51;;;;;;;;;7.00;6.25;;;;;9.28;52.80;101431.16;4823633;29;47606;-86
2022/04/10 08:06:18;;;;;;;;;6.75;6.75;;;;;9.28;52.29;101418.09;4793316;29;48142;-88
2022/04/10 08:08:43;;;;;;;;;6.75;6.00;;;;;9.38;52.73;101427.13;4808958;29;45774;-88
2022/04/10 08:11:09;;;;;;;;;6.00;6.00;;;;;9.38;52.38;101427.13;4810361;29;45665;-88
2022/04/10 08:16:56;;;;;;;;;7.00;5.00;;;;;9.50;52.26;101420.41;4809514;29;45699;-90
2022/04/10 08:19:22;;;;;;;;;6.00;5.50;;;;;9.52;51.75;101418.53;4795405;29;45632;-88
2022/04/10 08:21:47;;;;;;;;;9.75;8.00;;;;;9.57;51.60;101426.97;4827879;29;45708;-92
2022/04/10 08:24:13;;;;;;;;;8.00;7.25;;;;;9.65;51.26;101430.03;4797162;29;48596;-92
2022/04/10 08:30:01;;;;;;;;;7.00;6.25;;;;;9.74;51.54;101432.16;4812177;29;45891;-89
2022/04/10 08:32:26;;;;;;;;;9.25;7.00;;;;;9.77;51.07;101424.13;4797138;29;45610;-87
2022/04/10 08:34:52;;;;;;;;;6.75;6.00;;;;;9.79;50.67;101427.50;4812600;29;45766;-85
2022/04/10 08:37:18;;;;;;;;;7.00;6.75;;;;;9.81;50.60;101420.44;4792114;29;46407;-85
2022/04/10 08:39:43;;;;;;;;;6.25;6.00;;;;;9.89;50.89;101423.44;4791176;29;45673;-86
2022/04/10 08:45:30;;;;;;;;;4.25;3.50;;;;;9.96;50.53;101434.44;4807814;29;46075;-87
2022/04/10 08:47:56;;;;;;;;;3.50;3.50;;;;;9.99;50.28;101423.78;4793244;29;48107;-87
2022/04/10 08:50:23;;;;;;;;;3.25;3.00;;;;;10.02;50.41;101428.88;4814085;29;45746;-90
2022/04/10 08:52:55;;;;;;;;;7.50;6.75;;;;;10.04;49.83;101421.78;4812731;29;45755;-90
2022/04/10 08:55:22;;;;;;;;;7.00;6.50;;;;;10.04;49.76;101419.97;4793717;29;48021;-85
2022/04/10 09:01:11;;;;;;;;;7.00;7.00;;;;;10.15;50.23;101429.84;4806947;29;45527;-86
2022/04/10 09:03:38;;;;;;;;;7.25;6.25;;;;;10.24;50.08;101434.63;4814265;29;45783;-83
2022/04/10 09:06:07;;;;;;;;;7.50;6.75;;;;;10.28;49.70;101432.66;4808279;29;45709;-85
2022/04/10 09:08:33;;;;;;;;;8.50;7.50;;;;;10.30;49.67;101442.13;4806796;29;46041;-84
2022/04/10 09:11:08;;;;;;;;;8.50;7.75;;;;;10.32;49.95;101427.16;4790513;29;45664;-81
2022/04/10 09:17:22;;;;;;;;;11.50;9.25;;;;;10.43;50.08;101430.00;4806807;29;45650;-84
2022/04/10 09:19:51;;;;;;;;;7.75;6.25;;;;;10.47;49.58;101428.09;4807633;29;46191;-85
2022/04/10 09:22:27;;;;;;;;;9.50;7.75;;;;;10.49;49.27;101424.44;4809120;29;45940;-84
2022/04/10 09:25:07;;;;;;;;;7.75;7.75;;;;;10.55;49.54;101431.09;4810198;29;45667;-84
2022/04/10 09:27:35;;;;;;;;;25.25;21.00;;;;;10.59;49.56;101424.72;4809564;29;46591;-87
2022/04/10 09:30:01;;;;;;;;;7.25;7.25;;;;;10.62;49.08;101435.06;4809636;29;46234;-87
2022/04/10 09:32:39;;;;;;;;;5.00;3.50;;;;;10.65;48.66;101424.38;4810018;29;45834;-85
2022/04/10 09:35:05;;;;;;;;;6.00;5.50;;;;;10.68;48.33;101420.75;4810076;29;45561;-84
2022/04/10 09:37:53;;;;;;;;;6.00;6.00;;;;;10.73;48.07;101424.78;4809716;29;46711;-84
2022/04/10 09:40:35;;;;;;;;;6.00;5.00;;;;;10.73;48.22;101422.19;4793404;29;46956;-86
2022/04/10 09:43:01;;;;;;;;;8.25;7.75;;;;;10.77;48.42;101423.69;4794608;29;45656;-86
2022/04/10 09:45:31;;;;;;;;;8.75;8.00;;;;;10.78;48.10;101424.53;4810606;29;45730;-86
2022/04/10 09:47:57;;;;;;;;;7.25;7.25;;;;;10.81;48.27;101419.94;4793103;29;48564;-86
2022/04/10 09:50:30;;;;;;;;;8.00;6.25;;;;;10.89;48.44;101427.34;4808503;29;46444;-86
2022/04/10 09:52:56;;;;;;;;;7.00;6.50;;;;;10.94;48.09;101417.44;4808902;29;45645;-86
2022/04/10 09:55:35;;;;;;;;;7.00;6.50;;;;;10.98;47.35;101421.56;4807997;29;45624;-86
2022/04/10 09:58:06;;;;;;;;;7.00;6.25;;;;;11.02;47.25;101422.19;4808262;29;46454;-85
2022/04/10 10:00:36;;;;;;;;;6.25;4.75;;;;;11.06;46.95;101427.19;4806644;29;45645;-85
2022/04/10 10:03:15;;;;;;;;;;;;;;;;;;;;;
2022/04/10 10:05:41;;;;;;;;;4.25;4.00;;;;;11.07;46.83;101409.66;4805000;29;68600;-84
2022/04/10 10:08:07;;;;;;;;;3.50;3.50;;;;;11.16;46.13;101415.22;4805823;29;45930;-84
2022/04/10 10:10:37;;;;;;;;;6.00;5.50;;;;;11.16;45.97;101409.13;4805566;29;46395;-81
2022/04/10 10:13:07;;;;;;;;;7.25;7.25;;;;;11.22;46.15;101411.38;4805304;29;45833;-82
2022/04/10 10:15:34;;;;;;;;;8.75;7.00;;;;;11.28;46.20;101416.25;4805064;29;45559;-82
2022/04/10 10:18:02;;;;;;;;;6.75;6.00;;;;;11.31;46.46;101409.03;4804990;29;46704;-82
2022/04/10 10:20:28;;;;;;;;;8.25;6.75;;;;;11.35;46.14;101410.53;4804982;29;46056;-81
2022/04/10 10:22:55;;;;;;;;;10.00;7.25;;;;;11.36;45.77;101401.72;4805090;29;45936;-81
2022/04/10 10:25:29;;;;;;;;;5.50;4.25;;;;;11.35;45.30;101399.19;4818892;29;45754;-82
2022/04/10 10:28:13;;;;;;;;;7.50;7.50;;;;;11.39;45.67;101398.03;4804822;29;45832;-82
2022/04/10 10:31:00;;;;;;;;;8.00;7.25;;;;;11.43;46.22;101394.31;4804667;29;46033;-81
2022/04/10 10:33:27;;;;;;;;;9.50;7.75;;;;;11.45;46.23;101391.56;4805453;29;45824;-82
2022/04/10 10:35:56;;;;;;;;;5.00;4.00;;;;;11.49;46.06;101391.31;4805422;29;45766;-83
2022/04/10 10:38:26;;;;;;;;;8.00;7.00;;;;;11.57;45.94;101388.19;4805157;29;45643;-81
2022/04/10 10:41:07;;;;;;;;;8.00;7.25;;;;;11.61;45.88;101387.06;4805362;29;46236;-83
